sensor_id;sensor_type;location;lat;lon;timestamp;temperature;humidity
16517;DHT22;8371;52.272;9.746;2023-05-07T00:00:38;13.30;67.60
16517;DHT22;8371;52.272;9.746;2023-05-07T00:03:04;13.20;66.90
16517;DHT22;8371;52.272;9.746;2023-05-07T00:05:30;13.20;66.80
16517;DHT22;8371;52.272;9.746;2023-05-07T00:07:59;13.30;67.00
16517;DHT22;8371;52.272;9.746;2023-05-07T00:10:25;13.20;67.00
16517;DHT22;8371;52.272;9.746;2023-05-07T00:12:51;13.20;67.30
16517;DHT22;8371;52.272;9.746;2023-05-07T00:15:17;13.20;67.30
16517;DHT22;8371;52.272;9.746;2023-05-07T00:17:42;13.20;67.10
16517;DHT22;8371;52.272;9.746;2023-05-07T00:20:09;13.10;67.00
16517;DHT22;8371;52.272;9.746;2023-05-07T00:22:34;13.10;67.20
16517;DHT22;8371;52.272;9.746;2023-05-07T00:25:00;13.20;67.30
16517;DHT22;8371;52.272;9.746;2023-05-07T00:27:26;13.20;67.60
16517;DHT22;8371;52.272;9.746;2023-05-07T00:29:51;13.10;68.20
16517;DHT22;8371;52.272;9.746;2023-05-07T00:32:17;13.10;67.60
16517;DHT22;8371;52.272;9.746;2023-05-07T00:34:43;13.10;67.60
16517;DHT22;8371;52.272;9.746;2023-05-07T00:37:09;13.10;68.00
16517;DHT22;8371;52.272;9.746;2023-05-07T00:39:35;13.10;67.90
16517;DHT22;8371;52.272;9.746;2023-05-07T00:42:01;13.10;68.00
16517;DHT22;8371;52.272;9.746;2023-05-07T00:44:28;13.10;68.50
16517;DHT22;8371;52.272;9.746;2023-05-07T00:46:57;13.10;68.90
16517;DHT22;8371;52.272;9.746;2023-05-07T00:49:32;13.10;68.20
16517;DHT22;8371;52.272;9.746;2023-05-07T00:51:55;13.10;68.40
16517;DHT22;8371;52.272;9.746;2023-05-07T00:54:22;13.00;68.70
16517;DHT22;8371;52.272;9.746;2023-05-07T00:56:47;13.10;68.20
16517;DHT22;8371;52.272;9.746;2023-05-07T00:59:13;13.00;68.60
16517;DHT22;8371;52.272;9.746;2023-05-07T01:01:39;13.00;68.80
16517;DHT22;8371;52.272;9.746;2023-05-07T01:04:04;12.90;68.60
16517;DHT22;8371;52.272;9.746;2023-05-07T01:06:32;13.00;68.80
16517;DHT22;8371;52.272;9.746;2023-05-07T01:08:59;13.00;68.80
16517;DHT22;8371;52.272;9.746;2023-05-07T01:11:25;12.90;69.30
16517;DHT22;8371;52.272;9.746;2023-05-07T01:13:51;12.90;68.70
16517;DHT22;8371;52.272;9.746;2023-05-07T01:16:18;12.90;69.40
16517;DHT22;8371;52.272;9.746;2023-05-07T01:18:43;12.90;69.20
16517;DHT22;8371;52.272;9.746;2023-05-07T01:21:11;12.90;69.20
16517;DHT22;8371;52.272;9.746;2023-05-07T01:23:38;12.90;69.20
16517;DHT22;8371;52.272;9.746;2023-05-07T01:26:05;12.80;69.10
16517;DHT22;8371;52.272;9.746;2023-05-07T01:28:30;12.90;68.70
16517;DHT22;8371;52.272;9.746;2023-05-07T01:31:00;12.80;69.20
16517;DHT22;8371;52.272;9.746;2023-05-07T01:33:28;12.80;69.00
16517;DHT22;8371;52.272;9.746;2023-05-07T01:35:55;12.80;69.20
16517;DHT22;8371;52.272;9.746;2023-05-07T01:38:21;12.80;69.10
16517;DHT22;8371;52.272;9.746;2023-05-07T01:40:48;12.80;69.40
16517;DHT22;8371;52.272;9.746;2023-05-07T01:43:13;12.80;69.40
16517;DHT22;8371;52.272;9.746;2023-05-07T01:45:40;12.80;69.10
16517;DHT22;8371;52.272;9.746;2023-05-07T01:48:07;12.80;69.20
16517;DHT22;8371;52.272;9.746;2023-05-07T01:50:33;12.80;69.20
16517;DHT22;8371;52.272;9.746;2023-05-07T01:53:01;12.80;69.60
16517;DHT22;8371;52.272;9.746;2023-05-07T01:55:26;12.80;69.40
16517;DHT22;8371;52.272;9.746;2023-05-07T01:57:52;12.80;69.00
16517;DHT22;8371;52.272;9.746;2023-05-07T02:00:19;12.80;69.10
16517;DHT22;8371;52.272;9.746;2023-05-07T02:02:45;12.80;69.40
16517;DHT22;8371;52.272;9.746;2023-05-07T02:05:10;12.80;69.20
16517;DHT22;8371;52.272;9.746;2023-05-07T02:07:36;12.80;69.10
16517;DHT22;8371;52.272;9.746;2023-05-07T02:10:02;12.80;69.20
16517;DHT22;8371;52.272;9.746;2023-05-07T02:12:28;12.80;69.60
16517;DHT22;8371;52.272;9.746;2023-05-07T02:14:54;12.80;69.20
16517;DHT22;8371;52.272;9.746;2023-05-07T02:17:19;12.80;69.10
16517;DHT22;8371;52.272;9.746;2023-05-07T02:19:45;12.80;69.00
16517;DHT22;8371;52.272;9.746;2023-05-07T02:22:11;12.80;69.10
16517;DHT22;8371;52.272;9.746;2023-05-07T02:24:36;12.80;69.50
16517;DHT22;8371;52.272;9.746;2023-05-07T02:27:02;12.80;69.10
16517;DHT22;8371;52.272;9.746;2023-05-07T02:29:29;12.80;69.20
16517;DHT22;8371;52.272;9.746;2023-05-07T02:31:55;12.80;69.30
16517;DHT22;8371;52.272;9.746;2023-05-07T02:34:20;12.80;69.40
16517;DHT22;8371;52.272;9.746;2023-05-07T02:36:46;12.70;69.40
16517;DHT22;8371;52.272;9.746;2023-05-07T02:39:12;12.80;69.30
16517;DHT22;8371;52.272;9.746;2023-05-07T02:41:38;12.80;69.30
16517;DHT22;8371;52.272;9.746;2023-05-07T02:44:04;12.80;69.10
16517;DHT22;8371;52.272;9.746;2023-05-07T02:46:30;12.80;69.20
16517;DHT22;8371;52.272;9.746;2023-05-07T02:48:55;12.80;69.40
16517;DHT22;8371;52.272;9.746;2023-05-07T02:51:22;12.80;69.40
16517;DHT22;8371;52.272;9.746;2023-05-07T02:53:48;12.80;69.40
16517;DHT22;8371;52.272;9.746;2023-05-07T02:56:14;12.80;69.20
16517;DHT22;8371;52.272;9.746;2023-05-07T02:58:40;12.80;69.60
16517;DHT22;8371;52.272;9.746;2023-05-07T03:01:06;12.80;69.20
16517;DHT22;8371;52.272;9.746;2023-05-07T03:03:31;12.80;69.70
16517;DHT22;8371;52.272;9.746;2023-05-07T03:05:57;12.80;70.20
16517;DHT22;8371;52.272;9.746;2023-05-07T03:08:24;12.80;69.60
16517;DHT22;8371;52.272;9.746;2023-05-07T03:10:49;12.80;69.50
16517;DHT22;8371;52.272;9.746;2023-05-07T03:13:15;12.80;70.20
16517;DHT22;8371;52.272;9.746;2023-05-07T03:15:41;12.80;69.60
16517;DHT22;8371;52.272;9.746;2023-05-07T03:18:06;12.80;69.40
16517;DHT22;8371;52.272;9.746;2023-05-07T03:20:32;12.80;69.60
16517;DHT22;8371;52.272;9.746;2023-05-07T03:22:58;12.80;70.00
16517;DHT22;8371;52.272;9.746;2023-05-07T03:25:24;12.80;69.60
16517;DHT22;8371;52.272;9.746;2023-05-07T03:27:49;12.80;69.50
16517;DHT22;8371;52.272;9.746;2023-05-07T03:30:15;12.80;69.60
16517;DHT22;8371;52.272;9.746;2023-05-07T03:32:41;12.80;69.50
16517;DHT22;8371;52.272;9.746;2023-05-07T03:35:06;12.80;70.20
16517;DHT22;8371;52.272;9.746;2023-05-07T03:37:33;12.80;69.60
16517;DHT22;8371;52.272;9.746;2023-05-07T03:39:58;12.70;69.80
16517;DHT22;8371;52.272;9.746;2023-05-07T03:42:25;12.80;69.80
16517;DHT22;8371;52.272;9.746;2023-05-07T03:44:51;12.70;70.70
16517;DHT22;8371;52.272;9.746;2023-05-07T03:47:16;12.70;70.20
16517;DHT22;8371;52.272;9.746;2023-05-07T03:49:42;12.70;70.40
16517;DHT22;8371;52.272;9.746;2023-05-07T03:52:08;12.70;70.20
16517;DHT22;8371;52.272;9.746;2023-05-07T03:54:33;12.70;70.20
16517;DHT22;8371;52.272;9.746;2023-05-07T03:56:59;12.70;70.50
16517;DHT22;8371;52.272;9.746;2023-05-07T03:59:25;12.70;70.60
16517;DHT22;8371;52.272;9.746;2023-05-07T04:01:50;12.70;70.30
16517;DHT22;8371;52.272;9.746;2023-05-07T04:04:16;12.60;70.70
16517;DHT22;8371;52.272;9.746;2023-05-07T04:06:42;12.60;70.50
16517;DHT22;8371;52.272;9.746;2023-05-07T04:09:08;12.60;70.50
16517;DHT22;8371;52.272;9.746;2023-05-07T04:11:35;12.60;70.50
16517;DHT22;8371;52.272;9.746;2023-05-07T04:14:01;12.60;71.70
16517;DHT22;8371;52.272;9.746;2023-05-07T04:16:27;12.70;70.70
16517;DHT22;8371;52.272;9.746;2023-05-07T04:18:52;12.70;70.40
16517;DHT22;8371;52.272;9.746;2023-05-07T04:21:19;12.60;70.40
16517;DHT22;8371;52.272;9.746;2023-05-07T04:23:49;12.70;70.40
16517;DHT22;8371;52.272;9.746;2023-05-07T04:26:15;12.60;70.60
16517;DHT22;8371;52.272;9.746;2023-05-07T04:28:41;12.70;70.50
16517;DHT22;8371;52.272;9.746;2023-05-07T04:31:07;12.60;70.50
16517;DHT22;8371;52.272;9.746;2023-05-07T04:33:33;12.60;70.60
16517;DHT22;8371;52.272;9.746;2023-05-07T04:36:03;12.70;70.60
16517;DHT22;8371;52.272;9.746;2023-05-07T04:38:30;12.60;70.90
16517;DHT22;8371;52.272;9.746;2023-05-07T04:40:57;12.60;70.90
16517;DHT22;8371;52.272;9.746;2023-05-07T04:43:23;12.60;70.70
16517;DHT22;8371;52.272;9.746;2023-05-07T04:45:51;12.60;70.70
16517;DHT22;8371;52.272;9.746;2023-05-07T04:48:17;12.60;70.80
16517;DHT22;8371;52.272;9.746;2023-05-07T04:50:47;12.60;70.90
16517;DHT22;8371;52.272;9.746;2023-05-07T04:53:13;12.60;70.80
16517;DHT22;8371;52.272;9.746;2023-05-07T04:55:38;12.60;70.90
16517;DHT22;8371;52.272;9.746;2023-05-07T04:58:04;12.70;71.10
16517;DHT22;8371;52.272;9.746;2023-05-07T05:00:30;12.70;70.90
16517;DHT22;8371;52.272;9.746;2023-05-07T05:02:56;12.70;71.00
16517;DHT22;8371;52.272;9.746;2023-05-07T05:05:21;12.70;70.80
16517;DHT22;8371;52.272;9.746;2023-05-07T05:07:47;12.70;70.50
16517;DHT22;8371;52.272;9.746;2023-05-07T05:10:13;12.80;70.80
16517;DHT22;8371;52.272;9.746;2023-05-07T05:12:39;12.70;70.70
16517;DHT22;8371;52.272;9.746;2023-05-07T05:15:06;12.80;70.70
16517;DHT22;8371;52.272;9.746;2023-05-07T05:17:32;12.80;70.90
16517;DHT22;8371;52.272;9.746;2023-05-07T05:19:59;12.80;70.50
16517;DHT22;8371;52.272;9.746;2023-05-07T05:22:25;12.80;70.60
16517;DHT22;8371;52.272;9.746;2023-05-07T05:24:51;12.80;70.80
16517;DHT22;8371;52.272;9.746;2023-05-07T05:27:16;12.70;70.70
16517;DHT22;8371;52.272;9.746;2023-05-07T05:29:42;12.80;70.70
16517;DHT22;8371;52.272;9.746;2023-05-07T05:32:08;12.80;70.90
16517;DHT22;8371;52.272;9.746;2023-05-07T05:34:33;12.80;70.90
16517;DHT22;8371;52.272;9.746;2023-05-07T05:36:59;12.90;71.70
16517;DHT22;8371;52.272;9.746;2023-05-07T05:39:25;12.90;70.90
16517;DHT22;8371;52.272;9.746;2023-05-07T05:41:51;12.90;70.70
16517;DHT22;8371;52.272;9.746;2023-05-07T05:44:16;12.90;70.70
16517;DHT22;8371;52.272;9.746;2023-05-07T05:46:42;13.00;70.80
16517;DHT22;8371;52.272;9.746;2023-05-07T05:49:08;13.00;70.80
16517;DHT22;8371;52.272;9.746;2023-05-07T05:51:34;13.00;70.60
16517;DHT22;8371;52.272;9.746;2023-05-07T05:53:59;13.10;70.50
16517;DHT22;8371;52.272;9.746;2023-05-07T05:56:25;13.10;70.50
16517;DHT22;8371;52.272;9.746;2023-05-07T05:58:51;13.10;70.40
16517;DHT22;8371;52.272;9.746;2023-05-07T06:01:18;13.10;70.40
16517;DHT22;8371;52.272;9.746;2023-05-07T06:03:44;13.10;70.20
16517;DHT22;8371;52.272;9.746;2023-05-07T06:06:10;13.20;70.40
16517;DHT22;8371;52.272;9.746;2023-05-07T06:08:35;13.20;70.50
16517;DHT22;8371;52.272;9.746;2023-05-07T06:11:01;13.20;70.30
16517;DHT22;8371;52.272;9.746;2023-05-07T06:13:28;13.20;70.40
16517;DHT22;8371;52.272;9.746;2023-05-07T06:15:54;13.20;70.20
16517;DHT22;8371;52.272;9.746;2023-05-07T06:18:19;13.20;70.20
16517;DHT22;8371;52.272;9.746;2023-05-07T06:20:45;13.20;70.20
16517;DHT22;8371;52.272;9.746;2023-05-07T06:23:11;13.30;70.30
16517;DHT22;8371;52.272;9.746;2023-05-07T06:25:36;13.30;70.30
16517;DHT22;8371;52.272;9.746;2023-05-07T06:28:02;13.30;70.10
16517;DHT22;8371;52.272;9.746;2023-05-07T06:30:28;13.30;70.10
16517;DHT22;8371;52.272;9.746;2023-05-07T06:32:54;13.40;70.20
16517;DHT22;8371;52.272;9.746;2023-05-07T06:35:21;13.40;70.10
16517;DHT22;8371;52.272;9.746;2023-05-07T06:37:47;13.60;70.20
16517;DHT22;8371;52.272;9.746;2023-05-07T06:40:13;13.60;70.10
16517;DHT22;8371;52.272;9.746;2023-05-07T06:42:39;13.60;70.10
16517;DHT22;8371;52.272;9.746;2023-05-07T06:45:07;13.70;69.90
16517;DHT22;8371;52.272;9.746;2023-05-07T06:47:33;13.70;69.80
16517;DHT22;8371;52.272;9.746;2023-05-07T06:49:59;13.80;69.70
16517;DHT22;8371;52.272;9.746;2023-05-07T06:52:25;13.80;69.40
16517;DHT22;8371;52.272;9.746;2023-05-07T06:54:51;13.90;69.60
16517;DHT22;8371;52.272;9.746;2023-05-07T06:57:17;14.00;69.50
16517;DHT22;8371;52.272;9.746;2023-05-07T06:59:43;14.10;69.60
16517;DHT22;8371;52.272;9.746;2023-05-07T07:02:08;14.10;69.50
16517;DHT22;8371;52.272;9.746;2023-05-07T07:04:34;14.20;69.70
16517;DHT22;8371;52.272;9.746;2023-05-07T07:07:00;14.30;69.40
16517;DHT22;8371;52.272;9.746;2023-05-07T07:09:25;14.40;69.10
16517;DHT22;8371;52.272;9.746;2023-05-07T07:11:55;14.50;69.00
16517;DHT22;8371;52.272;9.746;2023-05-07T07:14:19;14.60;68.70
16517;DHT22;8371;52.272;9.746;2023-05-07T07:16:45;14.70;68.40
16517;DHT22;8371;52.272;9.746;2023-05-07T07:19:12;14.80;68.60
16517;DHT22;8371;52.272;9.746;2023-05-07T07:21:37;14.80;68.50
16517;DHT22;8371;52.272;9.746;2023-05-07T07:24:04;14.90;68.00
16517;DHT22;8371;52.272;9.746;2023-05-07T07:26:30;15.00;67.70
16517;DHT22;8371;52.272;9.746;2023-05-07T07:28:56;15.00;67.30
16517;DHT22;8371;52.272;9.746;2023-05-07T07:31:22;15.10;67.30
16517;DHT22;8371;52.272;9.746;2023-05-07T07:33:48;15.10;67.10
16517;DHT22;8371;52.272;9.746;2023-05-07T07:36:16;15.10;67.10
16517;DHT22;8371;52.272;9.746;2023-05-07T07:38:44;15.20;67.90
16517;DHT22;8371;52.272;9.746;2023-05-07T07:41:09;15.20;67.20
16517;DHT22;8371;52.272;9.746;2023-05-07T07:43:35;15.20;66.90
16517;DHT22;8371;52.272;9.746;2023-05-07T07:46:01;15.30;66.90
16517;DHT22;8371;52.272;9.746;2023-05-07T07:48:27;15.30;66.70
16517;DHT22;8371;52.272;9.746;2023-05-07T07:50:53;15.30;66.50
16517;DHT22;8371;52.272;9.746;2023-05-07T07:53:19;15.40;66.80
16517;DHT22;8371;52.272;9.746;2023-05-07T07:55:44;15.50;66.90
16517;DHT22;8371;52.272;9.746;2023-05-07T07:58:11;15.50;66.70
16517;DHT22;8371;52.272;9.746;2023-05-07T08:00:36;15.60;66.80
16517;DHT22;8371;52.272;9.746;2023-05-07T08:03:02;15.70;66.80
16517;DHT22;8371;52.272;9.746;2023-05-07T08:05:29;15.70;66.40
16517;DHT22;8371;52.272;9.746;2023-05-07T08:07:55;15.90;66.40
16517;DHT22;8371;52.272;9.746;2023-05-07T08:10:21;15.90;65.80
16517;DHT22;8371;52.272;9.746;2023-05-07T08:12:48;16.00;65.60
16517;DHT22;8371;52.272;9.746;2023-05-07T08:15:14;16.00;65.50
16517;DHT22;8371;52.272;9.746;2023-05-07T08:17:40;16.00;65.50
16517;DHT22;8371;52.272;9.746;2023-05-07T08:20:07;16.10;65.50
16517;DHT22;8371;52.272;9.746;2023-05-07T08:22:39;16.10;65.60
16517;DHT22;8371;52.272;9.746;2023-05-07T08:25:05;16.20;65.30
16517;DHT22;8371;52.272;9.746;2023-05-07T08:27:31;16.20;65.40
16517;DHT22;8371;52.272;9.746;2023-05-07T08:29:57;16.20;65.20
16517;DHT22;8371;52.272;9.746;2023-05-07T08:32:23;16.20;65.00
16517;DHT22;8371;52.272;9.746;2023-05-07T08:34:49;16.30;65.00
16517;DHT22;8371;52.272;9.746;2023-05-07T08:37:14;16.30;64.90
16517;DHT22;8371;52.272;9.746;2023-05-07T08:39:40;16.30;65.40
16517;DHT22;8371;52.272;9.746;2023-05-07T08:42:06;16.40;64.90
16517;DHT22;8371;52.272;9.746;2023-05-07T08:44:34;16.40;64.70
16517;DHT22;8371;52.272;9.746;2023-05-07T08:47:03;16.50;64.80
16517;DHT22;8371;52.272;9.746;2023-05-07T08:49:31;16.50;64.60
16517;DHT22;8371;52.272;9.746;2023-05-07T08:51:56;16.50;64.50
16517;DHT22;8371;52.272;9.746;2023-05-07T08:54:23;16.50;64.60
16517;DHT22;8371;52.272;9.746;2023-05-07T08:56:49;16.50;64.20
16517;DHT22;8371;52.272;9.746;2023-05-07T08:59:15;16.50;64.10
16517;DHT22;8371;52.272;9.746;2023-05-07T09:01:41;16.50;64.00
16517;DHT22;8371;52.272;9.746;2023-05-07T09:04:07;16.50;63.90
16517;DHT22;8371;52.272;9.746;2023-05-07T09:06:33;16.50;64.20
16517;DHT22;8371;52.272;9.746;2023-05-07T09:09:00;16.50;64.40
16517;DHT22;8371;52.272;9.746;2023-05-07T09:11:27;16.50;64.60
16517;DHT22;8371;52.272;9.746;2023-05-07T09:13:58;16.60;64.50
16517;DHT22;8371;52.272;9.746;2023-05-07T09:16:29;16.60;64.70
16517;DHT22;8371;52.272;9.746;2023-05-07T09:18:58;16.70;64.50
16517;DHT22;8371;52.272;9.746;2023-05-07T09:21:24;16.70;64.30
16517;DHT22;8371;52.272;9.746;2023-05-07T09:23:51;16.80;64.40
16517;DHT22;8371;52.272;9.746;2023-05-07T09:26:18;16.80;64.00
16517;DHT22;8371;52.272;9.746;2023-05-07T09:28:45;16.90;63.70
16517;DHT22;8371;52.272;9.746;2023-05-07T09:31:12;16.90;63.40
16517;DHT22;8371;52.272;9.746;2023-05-07T09:33:38;16.80;62.90
16517;DHT22;8371;52.272;9.746;2023-05-07T09:36:05;16.90;62.70
16517;DHT22;8371;52.272;9.746;2023-05-07T09:38:32;16.80;62.90
16517;DHT22;8371;52.272;9.746;2023-05-07T09:41:09;16.80;63.10
16517;DHT22;8371;52.272;9.746;2023-05-07T09:43:36;16.80;63.30
16517;DHT22;8371;52.272;9.746;2023-05-07T09:46:07;16.80;63.20
16517;DHT22;8371;52.272;9.746;2023-05-07T09:48:37;16.80;63.00
16517;DHT22;8371;52.272;9.746;2023-05-07T09:51:11;16.90;63.30
16517;DHT22;8371;52.272;9.746;2023-05-07T09:53:33;16.90;64.10
16517;DHT22;8371;52.272;9.746;2023-05-07T09:55:59;16.80;63.10
16517;DHT22;8371;52.272;9.746;2023-05-07T09:58:26;16.90;62.90
16517;DHT22;8371;52.272;9.746;2023-05-07T10:00:53;17.00;62.90
16517;DHT22;8371;52.272;9.746;2023-05-07T10:03:20;17.00;63.00
16517;DHT22;8371;52.272;9.746;2023-05-07T10:05:47;17.00;63.10
16517;DHT22;8371;52.272;9.746;2023-05-07T10:08:13;17.00;62.90
16517;DHT22;8371;52.272;9.746;2023-05-07T10:10:40;17.10;63.00
16517;DHT22;8371;52.272;9.746;2023-05-07T10:13:06;17.20;63.20
16517;DHT22;8371;52.272;9.746;2023-05-07T10:15:34;17.30;63.30
16517;DHT22;8371;52.272;9.746;2023-05-07T10:18:00;17.40;62.90
16517;DHT22;8371;52.272;9.746;2023-05-07T10:20:27;17.40;62.70
16517;DHT22;8371;52.272;9.746;2023-05-07T10:22:55;17.50;62.70
16517;DHT22;8371;52.272;9.746;2023-05-07T10:25:28;17.50;62.10
16517;DHT22;8371;52.272;9.746;2023-05-07T10:27:57;17.60;62.50
16517;DHT22;8371;52.272;9.746;2023-05-07T10:33:28;17.70;62.20
16517;DHT22;8371;52.272;9.746;2023-05-07T10:35:59;17.70;62.20
16517;DHT22;8371;52.272;9.746;2023-05-07T10:38:27;17.70;61.90
16517;DHT22;8371;52.272;9.746;2023-05-07T10:40:54;17.80;61.90
16517;DHT22;8371;52.272;9.746;2023-05-07T10:43:20;17.80;61.40
16517;DHT22;8371;52.272;9.746;2023-05-07T10:46:22;17.90;61.40
16517;DHT22;8371;52.272;9.746;2023-05-07T10:51:32;17.90;61.50
16517;DHT22;8371;52.272;9.746;2023-05-07T10:56:42;18.00;61.50
16517;DHT22;8371;52.272;9.746;2023-05-07T11:01:57;18.10;60.50
16517;DHT22;8371;52.272;9.746;2023-05-07T11:04:24;18.00;60.60
16517;DHT22;8371;52.272;9.746;2023-05-07T11:15:12;18.00;59.90
16517;DHT22;8371;52.272;9.746;2023-05-07T11:17:58;18.00;60.10
16517;DHT22;8371;52.272;9.746;2023-05-07T11:20:55;18.10;60.60
16517;DHT22;8371;52.272;9.746;2023-05-07T11:26:07;18.00;60.10
16517;DHT22;8371;52.272;9.746;2023-05-07T11:28:41;18.00;60.10
16517;DHT22;8371;52.272;9.746;2023-05-07T11:31:08;18.00;60.40
16517;DHT22;8371;52.272;9.746;2023-05-07T11:33:34;18.10;60.60
16517;DHT22;8371;52.272;9.746;2023-05-07T11:36:02;18.20;60.60
16517;DHT22;8371;52.272;9.746;2023-05-07T11:38:30;18.30;60.90
16517;DHT22;8371;52.272;9.746;2023-05-07T11:40:57;18.40;60.80
16517;DHT22;8371;52.272;9.746;2023-05-07T11:43:26;18.40;60.30
16517;DHT22;8371;52.272;9.746;2023-05-07T11:45:52;18.60;60.00
16517;DHT22;8371;52.272;9.746;2023-05-07T11:48:18;18.70;59.70
16517;DHT22;8371;52.272;9.746;2023-05-07T11:51:01;18.80;60.50
16517;DHT22;8371;52.272;9.746;2023-05-07T11:53:35;18.90;59.50
16517;DHT22;8371;52.272;9.746;2023-05-07T11:55:55;19.00;59.30
16517;DHT22;8371;52.272;9.746;2023-05-07T11:58:24;19.10;59.10
16517;DHT22;8371;52.272;9.746;2023-05-07T12:00:52;19.20;59.20
16517;DHT22;8371;52.272;9.746;2023-05-07T12:03:18;19.30;58.80
16517;DHT22;8371;52.272;9.746;2023-05-07T12:05:45;19.40;59.00
16517;DHT22;8371;52.272;9.746;2023-05-07T12:08:15;19.50;59.10
16517;DHT22;8371;52.272;9.746;2023-05-07T12:10:42;19.60;58.80
16517;DHT22;8371;52.272;9.746;2023-05-07T12:13:18;19.70;59.10
16517;DHT22;8371;52.272;9.746;2023-05-07T12:15:44;19.90;58.20
16517;DHT22;8371;52.272;9.746;2023-05-07T12:18:11;20.00;58.00
16517;DHT22;8371;52.272;9.746;2023-05-07T12:20:38;20.00;57.50
16517;DHT22;8371;52.272;9.746;2023-05-07T12:23:04;20.10;57.70
16517;DHT22;8371;52.272;9.746;2023-05-07T12:25:31;20.20;57.70
16517;DHT22;8371;52.272;9.746;2023-05-07T12:27:57;20.20;57.90
16517;DHT22;8371;52.272;9.746;2023-05-07T12:30:25;20.30;57.30
16517;DHT22;8371;52.272;9.746;2023-05-07T12:32:55;20.30;57.30
16517;DHT22;8371;52.272;9.746;2023-05-07T12:35:28;20.40;57.00
16517;DHT22;8371;52.272;9.746;2023-05-07T12:37:55;20.30;57.00
16517;DHT22;8371;52.272;9.746;2023-05-07T12:40:21;20.30;57.00
16517;DHT22;8371;52.272;9.746;2023-05-07T12:42:52;20.40;57.20
16517;DHT22;8371;52.272;9.746;2023-05-07T12:45:17;20.50;57.30
16517;DHT22;8371;52.272;9.746;2023-05-07T12:47:46;20.50;57.00
16517;DHT22;8371;52.272;9.746;2023-05-07T12:50:13;20.60;56.90
16517;DHT22;8371;52.272;9.746;2023-05-07T12:52:39;20.70;56.60
16517;DHT22;8371;52.272;9.746;2023-05-07T12:55:11;20.60;56.20
16517;DHT22;8371;52.272;9.746;2023-05-07T12:57:49;20.60;55.90
16517;DHT22;8371;52.272;9.746;2023-05-07T13:00:14;20.60;55.60
16517;DHT22;8371;52.272;9.746;2023-05-07T13:02:42;20.50;55.40
16517;DHT22;8371;52.272;9.746;2023-05-07T13:05:09;20.50;56.70
16517;DHT22;8371;52.272;9.746;2023-05-07T13:07:36;20.40;55.50
16517;DHT22;8371;52.272;9.746;2023-05-07T13:10:03;20.40;55.40
16517;DHT22;8371;52.272;9.746;2023-05-07T13:12:29;20.30;55.80
16517;DHT22;8371;52.272;9.746;2023-05-07T13:14:55;20.30;56.00
16517;DHT22;8371;52.272;9.746;2023-05-07T13:17:20;20.20;55.50
16517;DHT22;8371;52.272;9.746;2023-05-07T13:19:46;20.20;55.60
16517;DHT22;8371;52.272;9.746;2023-05-07T13:22:12;20.20;55.60
16517;DHT22;8371;52.272;9.746;2023-05-07T13:24:38;20.10;55.80
16517;DHT22;8371;52.272;9.746;2023-05-07T13:27:03;20.10;55.70
16517;DHT22;8371;52.272;9.746;2023-05-07T13:29:29;20.10;55.50
16517;DHT22;8371;52.272;9.746;2023-05-07T13:31:56;20.10;55.60
16517;DHT22;8371;52.272;9.746;2023-05-07T13:34:23;20.10;55.60
16517;DHT22;8371;52.272;9.746;2023-05-07T13:36:49;20.10;55.60
16517;DHT22;8371;52.272;9.746;2023-05-07T13:39:14;20.20;55.70
16517;DHT22;8371;52.272;9.746;2023-05-07T13:41:41;20.20;55.60
16517;DHT22;8371;52.272;9.746;2023-05-07T13:44:06;20.30;55.70
16517;DHT22;8371;52.272;9.746;2023-05-07T13:46:32;20.40;56.00
16517;DHT22;8371;52.272;9.746;2023-05-07T13:48:58;20.60;55.70
16517;DHT22;8371;52.272;9.746;2023-05-07T13:51:24;20.70;55.10
16517;DHT22;8371;52.272;9.746;2023-05-07T13:53:50;20.80;55.20
16517;DHT22;8371;52.272;9.746;2023-05-07T13:56:15;20.90;54.30
16517;DHT22;8371;52.272;9.746;2023-05-07T13:58:41;21.00;54.50
16517;DHT22;8371;52.272;9.746;2023-05-07T14:01:07;21.00;54.10
16517;DHT22;8371;52.272;9.746;2023-05-07T14:03:33;21.10;54.30
16517;DHT22;8371;52.272;9.746;2023-05-07T14:05:59;21.10;54.30
16517;DHT22;8371;52.272;9.746;2023-05-07T14:08:27;21.20;54.20
16517;DHT22;8371;52.272;9.746;2023-05-07T14:10:53;21.20;54.10
16517;DHT22;8371;52.272;9.746;2023-05-07T14:13:19;21.20;54.00
16517;DHT22;8371;52.272;9.746;2023-05-07T14:15:45;21.20;53.90
16517;DHT22;8371;52.272;9.746;2023-05-07T14:18:12;21.20;53.70
16517;DHT22;8371;52.272;9.746;2023-05-07T14:20:38;21.10;54.00
16517;DHT22;8371;52.272;9.746;2023-05-07T14:23:09;21.20;53.30
16517;DHT22;8371;52.272;9.746;2023-05-07T14:25:35;21.10;53.20
16517;DHT22;8371;52.272;9.746;2023-05-07T14:28:01;21.00;53.20
16517;DHT22;8371;52.272;9.746;2023-05-07T14:30:26;21.00;53.20
16517;DHT22;8371;52.272;9.746;2023-05-07T14:32:52;20.80;53.10
16517;DHT22;8371;52.272;9.746;2023-05-07T14:35:18;20.70;53.40
16517;DHT22;8371;52.272;9.746;2023-05-07T14:37:44;20.60;53.70
16517;DHT22;8371;52.272;9.746;2023-05-07T14:40:10;20.70;53.90
16517;DHT22;8371;52.272;9.746;2023-05-07T14:42:36;20.60;53.50
16517;DHT22;8371;52.272;9.746;2023-05-07T14:45:02;20.60;53.60
16517;DHT22;8371;52.272;9.746;2023-05-07T14:47:28;20.50;53.50
16517;DHT22;8371;52.272;9.746;2023-05-07T14:49:58;20.40;53.80
16517;DHT22;8371;52.272;9.746;2023-05-07T14:52:23;20.40;54.00
16517;DHT22;8371;52.272;9.746;2023-05-07T14:54:48;20.40;54.10
16517;DHT22;8371;52.272;9.746;2023-05-07T14:57:14;20.30;53.90
16517;DHT22;8371;52.272;9.746;2023-05-07T15:02:17;20.30;54.00
16517;DHT22;8371;52.272;9.746;2023-05-07T15:04:43;20.30;53.80
16517;DHT22;8371;52.272;9.746;2023-05-07T15:07:13;20.20;53.70
16517;DHT22;8371;52.272;9.746;2023-05-07T15:09:42;20.20;53.90
16517;DHT22;8371;52.272;9.746;2023-05-07T15:12:08;20.20;53.90
16517;DHT22;8371;52.272;9.746;2023-05-07T15:14:34;20.20;53.90
16517;DHT22;8371;52.272;9.746;2023-05-07T15:17:00;20.20;53.90
16517;DHT22;8371;52.272;9.746;2023-05-07T15:19:26;20.20;53.90
16517;DHT22;8371;52.272;9.746;2023-05-07T15:21:53;20.20;53.90
16517;DHT22;8371;52.272;9.746;2023-05-07T15:24:19;20.20;53.80
16517;DHT22;8371;52.272;9.746;2023-05-07T15:26:45;20.20;53.80
16517;DHT22;8371;52.272;9.746;2023-05-07T15:29:11;20.10;53.90
16517;DHT22;8371;52.272;9.746;2023-05-07T15:31:37;20.10;54.00
16517;DHT22;8371;52.272;9.746;2023-05-07T15:34:04;20.20;54.20
16517;DHT22;8371;52.272;9.746;2023-05-07T15:36:29;20.20;54.10
16517;DHT22;8371;52.272;9.746;2023-05-07T15:38:56;20.20;53.90
16517;DHT22;8371;52.272;9.746;2023-05-07T15:41:22;20.20;53.80
16517;DHT22;8371;52.272;9.746;2023-05-07T15:43:50;20.20;53.80
16517;DHT22;8371;52.272;9.746;2023-05-07T15:46:18;20.20;53.90
16517;DHT22;8371;52.272;9.746;2023-05-07T15:48:44;20.30;53.60
16517;DHT22;8371;52.272;9.746;2023-05-07T15:51:09;20.30;53.30
16517;DHT22;8371;52.272;9.746;2023-05-07T15:53:35;20.20;53.10
16517;DHT22;8371;52.272;9.746;2023-05-07T15:56:02;20.30;53.30
16517;DHT22;8371;52.272;9.746;2023-05-07T15:58:28;20.10;53.30
16517;DHT22;8371;52.272;9.746;2023-05-07T16:00:54;20.10;53.20
16517;DHT22;8371;52.272;9.746;2023-05-07T16:03:20;20.10;53.40
16517;DHT22;8371;52.272;9.746;2023-05-07T16:05:47;20.00;53.50